sensor_id;sensor_type;location;lat;lon;timestamp;temperature;humidity
15426;DHT22;7812;50.072;7.036;2024-03-02T00:01:25;8.70;99.90
15426;DHT22;7812;50.072;7.036;2024-03-02T00:03:50;8.00;99.90
15426;DHT22;7812;50.072;7.036;2024-03-02T00:06:20;8.10;99.90
15426;DHT22;7812;50.072;7.036;2024-03-02T00:08:46;8.00;99.90
15426;DHT22;7812;50.072;7.036;2024-03-02T00:11:12;8.10;99.90
15426;DHT22;7812;50.072;7.036;2024-03-02T00:13:39;8.20;99.90
15426;DHT22;7812;50.072;7.036;2024-03-02T00:16:05;8.10;99.90
15426;DHT22;7812;50.072;7.036;2024-03-02T00:18:36;8.20;99.90
15426;DHT22;7812;50.072;7.036;2024-03-02T00:21:03;8.20;99.90
15426;DHT22;7812;50.072;7.036;2024-03-02T00:23:33;7.70;99.90
15426;DHT22;7812;50.072;7.036;2024-03-02T00:25:59;7.80;99.90
15426;DHT22;7812;50.072;7.036;2024-03-02T00:28:35;8.00;99.90
15426;DHT22;7812;50.072;7.036;2024-03-02T00:31:11;8.30;99.90
15426;DHT22;7812;50.072;7.036;2024-03-02T00:33:41;8.40;99.90
15426;DHT22;7812;50.072;7.036;2024-03-02T00:36:08;8.40;99.90
15426;DHT22;7812;50.072;7.036;2024-03-02T00:38:34;8.40;99.90
15426;DHT22;7812;50.072;7.036;2024-03-02T00:41:07;8.60;99.90
15426;DHT22;7812;50.072;7.036;2024-03-02T00:43:43;8.40;99.90
15426;DHT22;7812;50.072;7.036;2024-03-02T00:46:16;8.30;99.90
15426;DHT22;7812;50.072;7.036;2024-03-02T00:51:23;8.40;99.90
15426;DHT22;7812;50.072;7.036;2024-03-02T00:53:51;8.30;99.90
15426;DHT22;7812;50.072;7.036;2024-03-02T00:56:17;8.40;99.90
15426;DHT22;7812;50.072;7.036;2024-03-02T00:58:44;8.20;99.90
15426;DHT22;7812;50.072;7.036;2024-03-02T01:01:10;8.20;99.90
15426;DHT22;7812;50.072;7.036;2024-03-02T01:03:35;8.00;99.90
15426;DHT22;7812;50.072;7.036;2024-03-02T01:06:03;7.80;99.90
15426;DHT22;7812;50.072;7.036;2024-03-02T01:08:28;7.80;99.90
15426;DHT22;7812;50.072;7.036;2024-03-02T01:10:54;7.90;99.90
15426;DHT22;7812;50.072;7.036;2024-03-02T01:13:22;8.00;99.90
15426;DHT22;7812;50.072;7.036;2024-03-02T01:15:47;8.00;99.90
15426;DHT22;7812;50.072;7.036;2024-03-02T01:18:13;7.90;99.90
15426;DHT22;7812;50.072;7.036;2024-03-02T01:20:39;7.40;99.90
15426;DHT22;7812;50.072;7.036;2024-03-02T01:23:04;7.50;99.90
15426;DHT22;7812;50.072;7.036;2024-03-02T01:25:30;7.70;99.90
15426;DHT22;7812;50.072;7.036;2024-03-02T01:27:55;7.90;99.90
15426;DHT22;7812;50.072;7.036;2024-03-02T01:30:21;8.10;99.90
15426;DHT22;7812;50.072;7.036;2024-03-02T01:32:47;8.20;99.90
15426;DHT22;7812;50.072;7.036;2024-03-02T01:35:13;8.30;99.90
15426;DHT22;7812;50.072;7.036;2024-03-02T01:37:38;8.30;99.90
15426;DHT22;7812;50.072;7.036;2024-03-02T01:40:04;8.40;99.90
15426;DHT22;7812;50.072;7.036;2024-03-02T01:42:38;8.40;99.90
15426;DHT22;7812;50.072;7.036;2024-03-02T01:45:08;8.40;99.90
15426;DHT22;7812;50.072;7.036;2024-03-02T01:47:34;8.30;99.90
15426;DHT22;7812;50.072;7.036;2024-03-02T01:50:00;8.50;99.90
15426;DHT22;7812;50.072;7.036;2024-03-02T01:52:27;8.70;99.90
15426;DHT22;7812;50.072;7.036;2024-03-02T01:54:53;8.60;99.90
15426;DHT22;7812;50.072;7.036;2024-03-02T01:57:19;8.50;99.90
15426;DHT22;7812;50.072;7.036;2024-03-02T01:59:45;8.50;99.90
15426;DHT22;7812;50.072;7.036;2024-03-02T02:02:14;8.40;99.90
15426;DHT22;7812;50.072;7.036;2024-03-02T02:04:39;8.20;99.90
15426;DHT22;7812;50.072;7.036;2024-03-02T02:07:05;8.30;99.90
15426;DHT22;7812;50.072;7.036;2024-03-02T02:09:32;8.40;99.90
15426;DHT22;7812;50.072;7.036;2024-03-02T02:11:57;8.40;99.90
15426;DHT22;7812;50.072;7.036;2024-03-02T02:14:23;8.40;99.90
15426;DHT22;7812;50.072;7.036;2024-03-02T02:16:49;8.30;99.90
15426;DHT22;7812;50.072;7.036;2024-03-02T02:19:14;8.10;99.90
15426;DHT22;7812;50.072;7.036;2024-03-02T02:21:43;8.00;99.90
15426;DHT22;7812;50.072;7.036;2024-03-02T02:24:09;7.70;99.90
15426;DHT22;7812;50.072;7.036;2024-03-02T02:26:35;7.60;99.90
15426;DHT22;7812;50.072;7.036;2024-03-02T02:29:00;7.60;99.90
15426;DHT22;7812;50.072;7.036;2024-03-02T02:31:26;7.70;99.90
15426;DHT22;7812;50.072;7.036;2024-03-02T02:33:52;7.70;99.90
15426;DHT22;7812;50.072;7.036;2024-03-02T02:36:18;7.90;99.90
15426;DHT22;7812;50.072;7.036;2024-03-02T02:38:46;7.90;99.90
15426;DHT22;7812;50.072;7.036;2024-03-02T02:41:12;7.80;99.90
15426;DHT22;7812;50.072;7.036;2024-03-02T02:43:38;7.90;99.90
15426;DHT22;7812;50.072;7.036;2024-03-02T02:46:05;8.10;99.90
15426;DHT22;7812;50.072;7.036;2024-03-02T02:48:31;8.20;99.90
15426;DHT22;7812;50.072;7.036;2024-03-02T02:50:56;8.20;99.90
15426;DHT22;7812;50.072;7.036;2024-03-02T02:53:22;8.30;99.90
15426;DHT22;7812;50.072;7.036;2024-03-02T02:55:48;8.20;99.90
15426;DHT22;7812;50.072;7.036;2024-03-02T02:58:13;8.20;99.90
15426;DHT22;7812;50.072;7.036;2024-03-02T03:00:40;8.20;99.90
15426;DHT22;7812;50.072;7.036;2024-03-02T03:03:05;8.10;99.90
15426;DHT22;7812;50.072;7.036;2024-03-02T03:05:32;7.90;99.90
15426;DHT22;7812;50.072;7.036;2024-03-02T03:07:57;8.00;99.90
15426;DHT22;7812;50.072;7.036;2024-03-02T03:10:23;8.20;99.90
15426;DHT22;7812;50.072;7.036;2024-03-02T03:12:51;8.10;99.90
15426;DHT22;7812;50.072;7.036;2024-03-02T03:15:17;8.20;99.90
15426;DHT22;7812;50.072;7.036;2024-03-02T03:17:42;8.30;99.90
15426;DHT22;7812;50.072;7.036;2024-03-02T03:20:09;8.40;99.90
15426;DHT22;7812;50.072;7.036;2024-03-02T03:22:40;8.40;99.90
15426;DHT22;7812;50.072;7.036;2024-03-02T03:25:06;8.50;99.90
15426;DHT22;7812;50.072;7.036;2024-03-02T03:27:35;8.50;99.90
15426;DHT22;7812;50.072;7.036;2024-03-02T03:30:01;8.50;99.90
15426;DHT22;7812;50.072;7.036;2024-03-02T03:32:27;8.80;99.90
15426;DHT22;7812;50.072;7.036;2024-03-02T03:34:53;8.90;99.90
15426;DHT22;7812;50.072;7.036;2024-03-02T03:37:19;8.90;99.90
15426;DHT22;7812;50.072;7.036;2024-03-02T03:39:45;9.00;99.90
15426;DHT22;7812;50.072;7.036;2024-03-02T03:42:11;9.10;99.90
15426;DHT22;7812;50.072;7.036;2024-03-02T03:44:36;9.30;99.90
15426;DHT22;7812;50.072;7.036;2024-03-02T03:47:02;9.30;99.90
15426;DHT22;7812;50.072;7.036;2024-03-02T03:49:28;9.20;99.90
15426;DHT22;7812;50.072;7.036;2024-03-02T03:51:53;9.10;99.90
15426;DHT22;7812;50.072;7.036;2024-03-02T03:54:19;9.10;99.90
15426;DHT22;7812;50.072;7.036;2024-03-02T03:56:45;9.20;99.90
15426;DHT22;7812;50.072;7.036;2024-03-02T03:59:10;9.40;99.90
15426;DHT22;7812;50.072;7.036;2024-03-02T04:01:36;9.50;99.90
15426;DHT22;7812;50.072;7.036;2024-03-02T04:04:02;9.60;99.90
15426;DHT22;7812;50.072;7.036;2024-03-02T04:06:29;9.50;99.90
15426;DHT22;7812;50.072;7.036;2024-03-02T04:08:55;9.40;99.90
15426;DHT22;7812;50.072;7.036;2024-03-02T04:11:20;9.40;99.90
15426;DHT22;7812;50.072;7.036;2024-03-02T04:13:46;9.60;99.90
15426;DHT22;7812;50.072;7.036;2024-03-02T04:16:12;9.60;99.90
15426;DHT22;7812;50.072;7.036;2024-03-02T04:18:37;9.60;99.90
15426;DHT22;7812;50.072;7.036;2024-03-02T04:21:05;9.60;99.90
15426;DHT22;7812;50.072;7.036;2024-03-02T04:23:30;9.50;99.90
15426;DHT22;7812;50.072;7.036;2024-03-02T04:25:56;9.50;99.90
15426;DHT22;7812;50.072;7.036;2024-03-02T04:28:21;9.40;99.90
15426;DHT22;7812;50.072;7.036;2024-03-02T04:30:47;9.30;99.90
15426;DHT22;7812;50.072;7.036;2024-03-02T04:33:13;9.30;99.90
15426;DHT22;7812;50.072;7.036;2024-03-02T04:35:38;9.20;99.90
15426;DHT22;7812;50.072;7.036;2024-03-02T04:38:04;9.30;99.90
15426;DHT22;7812;50.072;7.036;2024-03-02T04:40:30;9.20;99.90
15426;DHT22;7812;50.072;7.036;2024-03-02T04:42:55;9.20;99.90
15426;DHT22;7812;50.072;7.036;2024-03-02T04:45:21;9.20;99.90
15426;DHT22;7812;50.072;7.036;2024-03-02T04:47:47;9.20;99.90
15426;DHT22;7812;50.072;7.036;2024-03-02T04:50:12;9.20;99.90
15426;DHT22;7812;50.072;7.036;2024-03-02T04:52:38;9.20;99.90
15426;DHT22;7812;50.072;7.036;2024-03-02T04:55:04;9.20;99.90
15426;DHT22;7812;50.072;7.036;2024-03-02T04:57:50;9.30;99.90
15426;DHT22;7812;50.072;7.036;2024-03-02T05:00:16;9.20;99.90
15426;DHT22;7812;50.072;7.036;2024-03-02T05:02:42;9.20;99.90
15426;DHT22;7812;50.072;7.036;2024-03-02T05:05:08;9.20;99.90
15426;DHT22;7812;50.072;7.036;2024-03-02T05:07:34;9.30;99.90
15426;DHT22;7812;50.072;7.036;2024-03-02T05:09:59;9.10;99.90
15426;DHT22;7812;50.072;7.036;2024-03-02T05:12:25;9.20;99.90
15426;DHT22;7812;50.072;7.036;2024-03-02T05:15:10;9.30;99.90
15426;DHT22;7812;50.072;7.036;2024-03-02T05:17:37;9.30;99.90
15426;DHT22;7812;50.072;7.036;2024-03-02T05:20:07;9.40;99.90
15426;DHT22;7812;50.072;7.036;2024-03-02T05:22:33;9.30;99.90
15426;DHT22;7812;50.072;7.036;2024-03-02T05:25:00;9.20;99.90
15426;DHT22;7812;50.072;7.036;2024-03-02T05:27:26;9.20;99.90
15426;DHT22;7812;50.072;7.036;2024-03-02T05:29:52;9.10;99.90
15426;DHT22;7812;50.072;7.036;2024-03-02T05:32:18;9.10;99.90
15426;DHT22;7812;50.072;7.036;2024-03-02T05:34:43;9.00;99.90
15426;DHT22;7812;50.072;7.036;2024-03-02T05:37:09;9.10;99.90
15426;DHT22;7812;50.072;7.036;2024-03-02T05:39:35;9.20;99.90
15426;DHT22;7812;50.072;7.036;2024-03-02T05:42:00;9.20;99.90
15426;DHT22;7812;50.072;7.036;2024-03-02T05:44:26;9.40;99.90
15426;DHT22;7812;50.072;7.036;2024-03-02T05:46:52;9.10;99.90
15426;DHT22;7812;50.072;7.036;2024-03-02T05:49:18;9.00;99.90
15426;DHT22;7812;50.072;7.036;2024-03-02T05:51:43;9.00;99.90
15426;DHT22;7812;50.072;7.036;2024-03-02T05:54:09;9.00;99.90
15426;DHT22;7812;50.072;7.036;2024-03-02T05:56:35;8.90;99.90
15426;DHT22;7812;50.072;7.036;2024-03-02T05:59:00;8.90;99.90
15426;DHT22;7812;50.072;7.036;2024-03-02T06:01:46;8.90;99.90
15426;DHT22;7812;50.072;7.036;2024-03-02T06:04:20;8.90;99.90
15426;DHT22;7812;50.072;7.036;2024-03-02T06:06:46;8.90;99.90
15426;DHT22;7812;50.072;7.036;2024-03-02T06:09:12;8.90;99.90
15426;DHT22;7812;50.072;7.036;2024-03-02T06:11:39;9.10;99.90
15426;DHT22;7812;50.072;7.036;2024-03-02T06:14:05;8.90;99.90
15426;DHT22;7812;50.072;7.036;2024-03-02T06:16:32;8.90;99.90
15426;DHT22;7812;50.072;7.036;2024-03-02T06:18:58;9.00;99.90
15426;DHT22;7812;50.072;7.036;2024-03-02T06:21:24;8.90;99.90
15426;DHT22;7812;50.072;7.036;2024-03-02T06:23:50;8.80;99.90
15426;DHT22;7812;50.072;7.036;2024-03-02T06:26:15;8.60;99.90
15426;DHT22;7812;50.072;7.036;2024-03-02T06:28:41;8.70;99.90
15426;DHT22;7812;50.072;7.036;2024-03-02T06:31:13;8.70;99.90
15426;DHT22;7812;50.072;7.036;2024-03-02T06:33:39;8.70;99.90
15426;DHT22;7812;50.072;7.036;2024-03-02T06:36:05;8.70;99.90
15426;DHT22;7812;50.072;7.036;2024-03-02T06:38:34;8.80;99.90
15426;DHT22;7812;50.072;7.036;2024-03-02T06:40:59;8.90;99.90
15426;DHT22;7812;50.072;7.036;2024-03-02T06:43:25;9.00;99.90
15426;DHT22;7812;50.072;7.036;2024-03-02T06:45:51;9.00;99.90
15426;DHT22;7812;50.072;7.036;2024-03-02T06:48:20;9.10;99.90
15426;DHT22;7812;50.072;7.036;2024-03-02T06:50:49;9.20;99.90
15426;DHT22;7812;50.072;7.036;2024-03-02T06:53:16;9.30;99.90
15426;DHT22;7812;50.072;7.036;2024-03-02T06:55:45;9.50;99.90
15426;DHT22;7812;50.072;7.036;2024-03-02T06:58:14;9.60;99.90
15426;DHT22;7812;50.072;7.036;2024-03-02T07:00:43;9.40;99.90
15426;DHT22;7812;50.072;7.036;2024-03-02T07:03:09;9.30;99.90
15426;DHT22;7812;50.072;7.036;2024-03-02T07:05:39;8.90;99.90
15426;DHT22;7812;50.072;7.036;2024-03-02T07:08:05;8.70;99.90
15426;DHT22;7812;50.072;7.036;2024-03-02T07:10:31;8.90;99.90
15426;DHT22;7812;50.072;7.036;2024-03-02T07:12:57;9.30;99.90
15426;DHT22;7812;50.072;7.036;2024-03-02T07:15:22;9.90;99.90
15426;DHT22;7812;50.072;7.036;2024-03-02T07:18:08;10.10;99.90
15426;DHT22;7812;50.072;7.036;2024-03-02T07:20:34;10.30;99.90
15426;DHT22;7812;50.072;7.036;2024-03-02T07:22:59;10.40;99.90
15426;DHT22;7812;50.072;7.036;2024-03-02T07:25:25;10.50;99.90
15426;DHT22;7812;50.072;7.036;2024-03-02T07:27:51;10.50;99.90
15426;DHT22;7812;50.072;7.036;2024-03-02T07:30:16;10.20;99.90
15426;DHT22;7812;50.072;7.036;2024-03-02T07:32:42;9.90;99.90
15426;DHT22;7812;50.072;7.036;2024-03-02T07:35:14;9.60;99.90
15426;DHT22;7812;50.072;7.036;2024-03-02T07:37:41;9.60;99.90
15426;DHT22;7812;50.072;7.036;2024-03-02T07:40:07;9.90;99.90
15426;DHT22;7812;50.072;7.036;2024-03-02T07:42:40;9.70;99.90
15426;DHT22;7812;50.072;7.036;2024-03-02T07:45:07;9.50;99.90
15426;DHT22;7812;50.072;7.036;2024-03-02T07:47:36;9.50;99.90
15426;DHT22;7812;50.072;7.036;2024-03-02T07:50:02;10.00;99.90
15426;DHT22;7812;50.072;7.036;2024-03-02T07:52:28;10.30;99.90
15426;DHT22;7812;50.072;7.036;2024-03-02T07:54:54;10.70;99.90
15426;DHT22;7812;50.072;7.036;2024-03-02T07:57:21;11.50;99.90
15426;DHT22;7812;50.072;7.036;2024-03-02T07:59:47;12.30;99.90
15426;DHT22;7812;50.072;7.036;2024-03-02T08:02:14;13.40;99.90
15426;DHT22;7812;50.072;7.036;2024-03-02T08:04:40;13.80;99.90
15426;DHT22;7812;50.072;7.036;2024-03-02T08:07:06;15.60;99.90
15426;DHT22;7812;50.072;7.036;2024-03-02T08:09:31;16.40;99.90
15426;DHT22;7812;50.072;7.036;2024-03-02T08:11:57;16.00;99.90
15426;DHT22;7812;50.072;7.036;2024-03-02T08:14:23;16.10;99.90
15426;DHT22;7812;50.072;7.036;2024-03-02T08:16:49;16.20;99.90
15426;DHT22;7812;50.072;7.036;2024-03-02T08:19:15;15.80;99.90
15426;DHT22;7812;50.072;7.036;2024-03-02T08:21:42;15.50;99.90
15426;DHT22;7812;50.072;7.036;2024-03-02T08:24:08;15.20;99.90
15426;DHT22;7812;50.072;7.036;2024-03-02T08:26:34;14.30;99.90
15426;DHT22;7812;50.072;7.036;2024-03-02T08:29:01;14.30;99.90
15426;DHT22;7812;50.072;7.036;2024-03-02T08:31:30;14.50;99.90
15426;DHT22;7812;50.072;7.036;2024-03-02T08:33:56;14.00;99.90
15426;DHT22;7812;50.072;7.036;2024-03-02T08:36:23;14.40;99.90
15426;DHT22;7812;50.072;7.036;2024-03-02T08:38:52;15.40;99.90
15426;DHT22;7812;50.072;7.036;2024-03-02T08:41:17;16.10;99.90
15426;DHT22;7812;50.072;7.036;2024-03-02T08:43:44;16.20;99.90
15426;DHT22;7812;50.072;7.036;2024-03-02T08:46:10;14.30;99.90
15426;DHT22;7812;50.072;7.036;2024-03-02T08:48:35;14.60;99.90
15426;DHT22;7812;50.072;7.036;2024-03-02T08:51:01;14.40;99.90
15426;DHT22;7812;50.072;7.036;2024-03-02T08:53:29;14.90;99.90
15426;DHT22;7812;50.072;7.036;2024-03-02T08:55:55;14.70;99.90
15426;DHT22;7812;50.072;7.036;2024-03-02T08:58:21;13.70;99.90
15426;DHT22;7812;50.072;7.036;2024-03-02T09:00:47;13.40;99.90
15426;DHT22;7812;50.072;7.036;2024-03-02T09:03:13;13.50;99.90
15426;DHT22;7812;50.072;7.036;2024-03-02T09:05:38;13.90;99.90
15426;DHT22;7812;50.072;7.036;2024-03-02T09:08:04;15.70;99.90
15426;DHT22;7812;50.072;7.036;2024-03-02T09:10:30;17.20;99.90
15426;DHT22;7812;50.072;7.036;2024-03-02T09:12:56;18.60;99.90
15426;DHT22;7812;50.072;7.036;2024-03-02T09:15:22;19.60;99.90
15426;DHT22;7812;50.072;7.036;2024-03-02T09:17:47;19.00;99.90
15426;DHT22;7812;50.072;7.036;2024-03-02T09:20:13;17.50;99.90
15426;DHT22;7812;50.072;7.036;2024-03-02T09:22:39;16.20;99.90
15426;DHT22;7812;50.072;7.036;2024-03-02T09:25:05;15.50;99.90
15426;DHT22;7812;50.072;7.036;2024-03-02T09:27:32;15.10;99.90
15426;DHT22;7812;50.072;7.036;2024-03-02T09:29:58;14.10;99.90
15426;DHT22;7812;50.072;7.036;2024-03-02T09:32:24;13.80;99.90
15426;DHT22;7812;50.072;7.036;2024-03-02T09:34:49;14.40;99.90
15426;DHT22;7812;50.072;7.036;2024-03-02T09:37:15;15.60;99.90
15426;DHT22;7812;50.072;7.036;2024-03-02T09:39:43;14.90;99.90
15426;DHT22;7812;50.072;7.036;2024-03-02T09:42:09;14.10;99.90
15426;DHT22;7812;50.072;7.036;2024-03-02T09:44:35;14.40;99.90
15426;DHT22;7812;50.072;7.036;2024-03-02T09:47:01;14.50;99.90
15426;DHT22;7812;50.072;7.036;2024-03-02T09:49:26;14.70;99.90
15426;DHT22;7812;50.072;7.036;2024-03-02T09:51:52;14.00;99.90
15426;DHT22;7812;50.072;7.036;2024-03-02T09:54:18;13.90;99.90
15426;DHT22;7812;50.072;7.036;2024-03-02T09:56:47;13.10;99.90
15426;DHT22;7812;50.072;7.036;2024-03-02T09:59:12;13.20;99.90
15426;DHT22;7812;50.072;7.036;2024-03-02T10:01:58;13.10;99.90
15426;DHT22;7812;50.072;7.036;2024-03-02T10:04:26;12.80;99.90
15426;DHT22;7812;50.072;7.036;2024-03-02T10:06:58;13.00;99.90
15426;DHT22;7812;50.072;7.036;2024-03-02T10:09:34;13.20;99.90
15426;DHT22;7812;50.072;7.036;2024-03-02T10:12:08;12.80;99.90
15426;DHT22;7812;50.072;7.036;2024-03-02T10:14:34;12.10;99.90
15426;DHT22;7812;50.072;7.036;2024-03-02T10:19:29;11.90;99.90
15426;DHT22;7812;50.072;7.036;2024-03-02T10:22:00;11.80;99.90
15426;DHT22;7812;50.072;7.036;2024-03-02T10:24:28;11.60;99.90
15426;DHT22;7812;50.072;7.036;2024-03-02T10:26:59;11.70;99.90
15426;DHT22;7812;50.072;7.036;2024-03-02T10:29:25;12.00;99.90
15426;DHT22;7812;50.072;7.036;2024-03-02T10:31:54;12.10;99.90
15426;DHT22;7812;50.072;7.036;2024-03-02T10:34:21;12.10;99.90
15426;DHT22;7812;50.072;7.036;2024-03-02T10:36:47;12.30;99.90
15426;DHT22;7812;50.072;7.036;2024-03-02T10:39:14;12.20;99.90
15426;DHT22;7812;50.072;7.036;2024-03-02T10:41:40;12.40;99.90
15426;DHT22;7812;50.072;7.036;2024-03-02T10:44:09;12.70;99.90
15426;DHT22;7812;50.072;7.036;2024-03-02T10:46:37;12.70;99.90
15426;DHT22;7812;50.072;7.036;2024-03-02T10:49:04;12.70;99.90
15426;DHT22;7812;50.072;7.036;2024-03-02T10:51:32;12.30;99.90
15426;DHT22;7812;50.072;7.036;2024-03-02T10:53:59;12.40;99.90
15426;DHT22;7812;50.072;7.036;2024-03-02T10:56:38;12.90;99.90
15426;DHT22;7812;50.072;7.036;2024-03-02T10:59:37;12.60;99.90
15426;DHT22;7812;50.072;7.036;2024-03-02T11:02:05;13.20;99.90
15426;DHT22;7812;50.072;7.036;2024-03-02T11:04:34;14.50;99.90
15426;DHT22;7812;50.072;7.036;2024-03-02T11:09:30;16.60;99.90
15426;DHT22;7812;50.072;7.036;2024-03-02T11:14:42;19.00;99.90
15426;DHT22;7812;50.072;7.036;2024-03-02T11:17:11;18.60;99.90
15426;DHT22;7812;50.072;7.036;2024-03-02T11:19:39;16.80;99.90
15426;DHT22;7812;50.072;7.036;2024-03-02T11:22:06;16.20;99.90
15426;DHT22;7812;50.072;7.036;2024-03-02T11:24:33;16.10;99.90
15426;DHT22;7812;50.072;7.036;2024-03-02T11:27:00;16.70;99.90
15426;DHT22;7812;50.072;7.036;2024-03-02T11:32:02;14.50;99.90
15426;DHT22;7812;50.072;7.036;2024-03-02T11:34:32;14.40;99.90
15426;DHT22;7812;50.072;7.036;2024-03-02T11:36:59;15.00;99.90
15426;DHT22;7812;50.072;7.036;2024-03-02T11:39:26;15.50;99.90
15426;DHT22;7812;50.072;7.036;2024-03-02T11:41:51;14.60;99.90
15426;DHT22;7812;50.072;7.036;2024-03-02T11:44:17;14.20;99.90
15426;DHT22;7812;50.072;7.036;2024-03-02T11:47:01;14.20;99.90
15426;DHT22;7812;50.072;7.036;2024-03-02T11:52:05;14.50;99.90
15426;DHT22;7812;50.072;7.036;2024-03-02T11:54:39;15.00;99.90
15426;DHT22;7812;50.072;7.036;2024-03-02T11:57:05;14.70;99.90
15426;DHT22;7812;50.072;7.036;2024-03-02T11:59:32;14.50;99.90
15426;DHT22;7812;50.072;7.036;2024-03-02T12:01:58;14.30;99.90
15426;DHT22;7812;50.072;7.036;2024-03-02T12:04:25;13.70;99.90
15426;DHT22;7812;50.072;7.036;2024-03-02T12:06:59;13.40;99.90
15426;DHT22;7812;50.072;7.036;2024-03-02T12:09:26;13.60;99.90
15426;DHT22;7812;50.072;7.036;2024-03-02T12:12:08;13.70;99.90
15426;DHT22;7812;50.072;7.036;2024-03-02T12:14:36;13.80;99.90
15426;DHT22;7812;50.072;7.036;2024-03-02T12:17:02;14.30;99.90
15426;DHT22;7812;50.072;7.036;2024-03-02T12:19:29;14.60;99.90
15426;DHT22;7812;50.072;7.036;2024-03-02T12:22:01;14.90;99.90
15426;DHT22;7812;50.072;7.036;2024-03-02T12:24:28;15.10;99.90
15426;DHT22;7812;50.072;7.036;2024-03-02T12:26:54;15.00;99.90
15426;DHT22;7812;50.072;7.036;2024-03-02T12:29:20;15.10;99.90
15426;DHT22;7812;50.072;7.036;2024-03-02T12:31:49;14.70;99.90
15426;DHT22;7812;50.072;7.036;2024-03-02T12:34:16;14.10;99.90
15426;DHT22;7812;50.072;7.036;2024-03-02T12:36:42;13.80;99.90
15426;DHT22;7812;50.072;7.036;2024-03-02T12:39:09;13.90;99.90
15426;DHT22;7812;50.072;7.036;2024-03-02T12:41:38;14.30;99.90
15426;DHT22;7812;50.072;7.036;2024-03-02T12:44:07;14.50;99.90
15426;DHT22;7812;50.072;7.036;2024-03-02T12:46:32;14.80;99.90
15426;DHT22;7812;50.072;7.036;2024-03-02T12:48:58;14.80;99.90
15426;DHT22;7812;50.072;7.036;2024-03-02T12:51:30;13.90;99.90
15426;DHT22;7812;50.072;7.036;2024-03-02T12:53:57;14.00;99.90
15426;DHT22;7812;50.072;7.036;2024-03-02T12:56:24;14.20;99.90
15426;DHT22;7812;50.072;7.036;2024-03-02T12:58:59;14.50;99.90
15426;DHT22;7812;50.072;7.036;2024-03-02T13:01:25;15.00;99.90
15426;DHT22;7812;50.072;7.036;2024-03-02T13:03:52;15.30;99.90
15426;DHT22;7812;50.072;7.036;2024-03-02T13:06:18;15.70;99.90
15426;DHT22;7812;50.072;7.036;2024-03-02T13:08:45;15.50;99.90
15426;DHT22;7812;50.072;7.036;2024-03-02T13:11:12;14.90;99.90
15426;DHT22;7812;50.072;7.036;2024-03-02T13:13:39;15.20;99.90
15426;DHT22;7812;50.072;7.036;2024-03-02T13:16:12;15.20;99.90
15426;DHT22;7812;50.072;7.036;2024-03-02T13:18:39;15.10;99.90
15426;DHT22;7812;50.072;7.036;2024-03-02T13:21:06;15.40;99.90
15426;DHT22;7812;50.072;7.036;2024-03-02T13:23:31;14.80;99.90
15426;DHT22;7812;50.072;7.036;2024-03-02T13:26:00;14.20;99.90
15426;DHT22;7812;50.072;7.036;2024-03-02T13:28:26;14.00;99.90
15426;DHT22;7812;50.072;7.036;2024-03-02T13:30:52;14.30;99.90
15426;DHT22;7812;50.072;7.036;2024-03-02T13:33:17;14.30;99.90
15426;DHT22;7812;50.072;7.036;2024-03-02T13:35:51;14.30;99.90
15426;DHT22;7812;50.072;7.036;2024-03-02T13:38:18;14.30;99.90
15426;DHT22;7812;50.072;7.036;2024-03-02T13:40:44;14.20;99.90
15426;DHT22;7812;50.072;7.036;2024-03-02T13:43:11;14.00;99.90
15426;DHT22;7812;50.072;7.036;2024-03-02T13:45:37;13.60;99.90
15426;DHT22;7812;50.072;7.036;2024-03-02T13:48:03;13.50;99.90
15426;DHT22;7812;50.072;7.036;2024-03-02T13:50:29;13.60;99.90
15426;DHT22;7812;50.072;7.036;2024-03-02T13:52:55;13.60;99.90
15426;DHT22;7812;50.072;7.036;2024-03-02T13:55:22;13.50;99.90
15426;DHT22;7812;50.072;7.036;2024-03-02T13:57:48;13.40;99.90
15426;DHT22;7812;50.072;7.036;2024-03-02T14:00:16;13.20;99.90
15426;DHT22;7812;50.072;7.036;2024-03-02T14:02:45;13.20;99.90
15426;DHT22;7812;50.072;7.036;2024-03-02T14:05:11;13.30;99.90
15426;DHT22;7812;50.072;7.036;2024-03-02T14:07:40;13.40;99.90
15426;DHT22;7812;50.072;7.036;2024-03-02T14:10:06;13.60;99.90
15426;DHT22;7812;50.072;7.036;2024-03-02T14:12:32;13.60;99.90
15426;DHT22;7812;50.072;7.036;2024-03-02T14:14:58;13.70;99.90
15426;DHT22;7812;50.072;7.036;2024-03-02T14:17:28;13.80;99.90
15426;DHT22;7812;50.072;7.036;2024-03-02T14:19:55;13.80;99.90
15426;DHT22;7812;50.072;7.036;2024-03-02T14:22:24;14.00;99.90
15426;DHT22;7812;50.072;7.036;2024-03-02T14:24:50;14.00;99.90
15426;DHT22;7812;50.072;7.036;2024-03-02T14:27:16;13.60;99.90
15426;DHT22;7812;50.072;7.036;2024-03-02T14:29:45;13.50;99.90
15426;DHT22;7812;50.072;7.036;2024-03-02T14:32:10;13.30;99.90
15426;DHT22;7812;50.072;7.036;2024-03-02T14:34:36;13.30;99.90
15426;DHT22;7812;50.072;7.036;2024-03-02T14:37:02;13.10;99.90
15426;DHT22;7812;50.072;7.036;2024-03-02T14:39:28;13.00;99.90
15426;DHT22;7812;50.072;7.036;2024-03-02T14:41:54;13.10;99.90
15426;DHT22;7812;50.072;7.036;2024-03-02T14:44:21;13.10;99.90
15426;DHT22;7812;50.072;7.036;2024-03-02T14:46:48;13.10;99.90
15426;DHT22;7812;50.072;7.036;2024-03-02T14:49:13;13.30;99.90
15426;DHT22;7812;50.072;7.036;2024-03-02T14:51:39;13.20;99.90
15426;DHT22;7812;50.072;7.036;2024-03-02T14:54:05;13.20;99.90
15426;DHT22;7812;50.072;7.036;2024-03-02T14:56:32;13.10;99.90
15426;DHT22;7812;50.072;7.036;2024-03-02T14:58:58;12.90;99.90
15426;DHT22;7812;50.072;7.036;2024-03-02T15:01:24;13.00;99.90
15426;DHT22;7812;50.072;7.036;2024-03-02T15:03:53;13.10;99.90
15426;DHT22;7812;50.072;7.036;2024-03-02T15:06:18;13.10;99.90
15426;DHT22;7812;50.072;7.036;2024-03-02T15:08:44;13.10;99.90
15426;DHT22;7812;50.072;7.036;2024-03-02T15:11:13;13.10;99.90
15426;DHT22;7812;50.072;7.036;2024-03-02T15:13:39;13.10;99.90
15426;DHT22;7812;50.072;7.036;2024-03-02T15:16:05;13.10;99.90
15426;DHT22;7812;50.072;7.036;2024-03-02T15:18:31;13.10;99.90
15426;DHT22;7812;50.072;7.036;2024-03-02T15:20:56;13.00;99.90
15426;DHT22;7812;50.072;7.036;2024-03-02T15:23:22;12.90;99.90
15426;DHT22;7812;50.072;7.036;2024-03-02T15:25:48;12.90;99.90
15426;DHT22;7812;50.072;7.036;2024-03-02T15:28:13;12.70;99.90
15426;DHT22;7812;50.072;7.036;2024-03-02T15:30:39;12.80;99.90
15426;DHT22;7812;50.072;7.036;2024-03-02T15:33:05;12.70;99.90
15426;DHT22;7812;50.072;7.036;2024-03-02T15:35:30;12.80;99.90
15426;DHT22;7812;50.072;7.036;2024-03-02T15:37:56;13.00;99.90
15426;DHT22;7812;50.072;7.036;2024-03-02T15:40:21;12.80;99.90
15426;DHT22;7812;50.072;7.036;2024-03-02T15:42:47;12.90;99.90
15426;DHT22;7812;50.072;7.036;2024-03-02T15:45:16;12.70;99.90
15426;DHT22;7812;50.072;7.036;2024-03-02T15:47:42;12.70;99.90
15426;DHT22;7812;50.072;7.036;2024-03-02T15:50:08;12.60;99.90
15426;DHT22;7812;50.072;7.036;2024-03-02T15:52:34;12.60;99.90
15426;DHT22;7812;50.072;7.036;2024-03-02T15:54:59;12.50;99.90
15426;DHT22;7812;50.072;7.036;2024-03-02T15:57:25;12.70;99.90
15426;DHT22;7812;50.072;7.036;2024-03-02T15:59:51;12.80;99.90
15426;DHT22;7812;50.072;7.036;2024-03-02T16:02:17;12.80;99.90
15426;DHT22;7812;50.072;7.036;2024-03-02T16:04:42;12.80;99.90
15426;DHT22;7812;50.072;7.036;2024-03-02T16:07:08;12.90;99.90